• Join FlightAware (Why Join?)
  • Login
  • US Flag 
11:25PM EDT


 

Airport Tracker/Info


-or-


 

Live Flight TrackerFlight Track Log ✈ ANA1188 ✈ 05-Feb-2014 ✈ RCSS / TSA - RJTT / HND

Flight Track Log - Related Links

Times and Time Zones

All times are in EST time to prevent confusion due to time zone crossing. See the ANA1188 flight status page for this flight to view local times or setup timezone preferences in your user account.

Time Position Orientation Groundspeed Altitude Reporting Facility
EST Latitude Longitude Course Direction KTS MPH feet Rate Location/Type
03:52AM 25.4924 122.1519 52° Northeast  Level Estimated
03:53AM 25.5767 122.2724 52° Northeast  Level Estimated
03:54AM 25.6609 122.3931 52° Northeast  Level Estimated
03:55AM 25.7450 122.5140 52° Northeast  Level Estimated
03:56AM 25.8290 122.6351 52° Northeast  Level Estimated
03:57AM 25.9129 122.7563 52° Northeast  Level Estimated
03:58AM 25.9967 122.8777 52° Northeast  Level Estimated
03:59AM 26.0804 122.9993 53° Northeast  Level Estimated
04:00AM 26.1640 123.1210 53° Northeast  Level Estimated
04:01AM 26.2475 123.2430 53° Northeast  Level Estimated
04:02AM 26.3309 123.3651 53° Northeast  Level Estimated
04:03AM 26.4141 123.4873 53° Northeast  Level Estimated
04:04AM 26.4973 123.6098 53° Northeast  Level Estimated
04:05AM 26.5804 123.7324 53° Northeast  Level Estimated
04:06AM 26.6633 123.8552 53° Northeast  Level Estimated
04:07AM 26.7462 123.9782 53° Northeast  Level Estimated
04:08AM 26.8290 124.1014 53° Northeast  Level Estimated
04:09AM 26.9116 124.2247 53° Northeast  Level Estimated
04:10AM 26.9942 124.3482 53° Northeast  Level Estimated
04:11AM 27.0766 124.4719 53° Northeast  Level Estimated
04:12AM 27.1589 124.5958 53° Northeast  Level Estimated
04:13AM 27.2411 124.7199 53° Northeast  Level Estimated
04:14AM 27.3233 124.8441 53° Northeast  Level Estimated
04:15AM 27.4053 124.9686 53° Northeast  Level Estimated
04:16AM 27.4872 125.0932 53° Northeast  Level Estimated
04:17AM 27.5689 125.2180 54° Northeast  Level Estimated
04:18AM 27.6506 125.3430 54° Northeast  Level Estimated
04:19AM 27.7321 125.4682 54° Northeast  Level Estimated
04:20AM 27.8136 125.5936 54° Northeast  Level Estimated
04:21AM 27.8949 125.7191 54° Northeast  Level Estimated
04:22AM 27.9761 125.8448 54° Northeast  Level Estimated
04:23AM 28.0572 125.9708 54° Northeast  Level Estimated
04:24AM 28.1382 126.0969 54° Northeast  Level Estimated
04:25AM 28.2191 126.2232 54° Northeast  Level Estimated
04:26AM 28.2998 126.3497 54° Northeast  Level Estimated
04:27AM 28.3805 126.4764 54° Northeast  Level Estimated
04:28AM 28.4610 126.6033 54° Northeast  Level Estimated
04:29AM 28.5414 126.7304 54° Northeast  Level Estimated
04:30AM 28.6217 126.8577 54° Northeast  Level Estimated
04:31AM 28.7018 126.9851 54° Northeast  Level Estimated
04:32AM 28.7819 127.1128 54° Northeast  Level Estimated
04:33AM 28.8618 127.2407 54° Northeast  Level Estimated
04:34AM 28.9416 127.3687 55° Northeast  Level Estimated
04:35AM 29.0213 127.4970 55° Northeast  Level Estimated
04:36AM 29.1008 127.6255 55° Northeast  Level Estimated
04:37AM 29.1803 127.7541 55° Northeast  Level Estimated
04:38AM 29.2596 127.8829 55° Northeast  Level Estimated
04:39AM 29.3388 128.0120 55° Northeast  Level Estimated
04:40AM 29.4178 128.1413 55° Northeast  Level Estimated
04:41AM 29.4968 128.2707 55° Northeast  Level Estimated
04:42AM 29.5756 128.4004 55° Northeast  Level Estimated
04:43AM 29.6543 128.5302 55° Northeast  Level Estimated
04:44AM 29.7328 128.6603 55° Northeast  Level Estimated
04:45AM 29.8113 128.7905 55° Northeast  Level Estimated
04:46AM 29.8896 128.9210 55° Northeast  Level Estimated
04:47AM 29.9677 129.0517 55° Northeast  Level Estimated
04:48AM 30.0458 129.1826 55° Northeast  Level Estimated
04:49AM 30.1237 129.3137 55° Northeast  Level Estimated
04:50AM 30.2015 129.4450 56° Northeast  Level Estimated
04:51AM 30.2792 129.5765 56° Northeast  Level Estimated
04:52AM 30.3567 129.7082 56° Northeast  Level Estimated
04:53AM 30.4341 129.8401 56° Northeast  Level Estimated
04:54AM 30.5113 129.9722 56° Northeast  Level Estimated
04:55AM 30.5885 130.1046 56° Northeast  Level Estimated
04:56AM 30.6654 130.2371 56° Northeast  Level Estimated
04:57AM 30.7423 130.3699 56° Northeast  Level Estimated
04:58AM 30.8190 130.5028 56° Northeast  Level Estimated
04:59AM 30.8956 130.6360 56° Northeast  Level Estimated
05:00AM 30.9721 130.7694 56° Northeast  Level Estimated
05:01AM 31.0484 130.9030 56° Northeast  Level Estimated
05:02AM 31.1245 131.0368 56° Northeast  Level Estimated
05:03AM 31.2006 131.1709 56° Northeast  Level Estimated
05:04AM 31.2765 131.3051 56° Northeast  Level Estimated
05:05AM 31.3522 131.4396 57° Northeast  Level Estimated
05:06AM 31.4279 131.5743 57° Northeast  Level Estimated
05:07AM 31.5033 131.7092 57° Northeast  Level Estimated
05:08AM 31.5787 131.8443 57° Northeast  Level Estimated
05:09AM 31.6539 131.9797 57° Northeast  Level Estimated
05:10AM 31.7289 132.1152 57° Northeast  Level Estimated
05:11AM 31.8038 132.2510 57° Northeast  Level Estimated
05:12AM 31.8786 132.3870 57° Northeast  Level Estimated
05:13AM 31.9532 132.5232 57° Northeast  Level Estimated
05:14AM 32.0276 132.6597 57° Northeast  Level Estimated
05:15AM 32.1020 132.7963 57° Northeast  Level Estimated
05:16AM 32.1762 132.9332 57° Northeast  Level Estimated
05:17AM 32.2502 133.0703 57° Northeast  Level Estimated
05:18AM 32.3241 133.2077 57° Northeast  Level Estimated
05:19AM 32.3978 133.3452 58° Northeast  Level Estimated
05:20AM 32.4714 133.4830 58° Northeast  Level Estimated
05:21AM 32.5448 133.6210 58° Northeast  Level Estimated
05:22AM 32.6181 133.7592 58° Northeast  Level Estimated
05:23AM 32.6912 133.8977 58° Northeast  Level Estimated
05:24AM 32.7642 134.0364 58° Northeast  Level Estimated
05:25AM 32.8370 134.1753 58° Northeast  Level Estimated
05:26AM 32.9097 134.3144 58° Northeast  Level Estimated
05:27AM 32.9822 134.4538 58° Northeast  Level Estimated
05:28AM 33.0546 134.5934 58° Northeast  Level Estimated
05:29AM 33.1268 134.7332 58° Northeast  Level Estimated
05:30AM 33.1988 134.8733 58° Northeast  Level Estimated
05:31AM 33.2707 135.0136 58° Northeast  Level Estimated
05:32AM 33.3424 135.1541 59° Northeast  Level Estimated
05:33AM 33.4140 135.2948 59° Northeast  Level Estimated
05:34AM 33.4854 135.4358 59° Northeast  Level Estimated
05:35AM 33.5567 135.5770 59° Northeast  Level Estimated
05:36AM 33.6278 135.7185 59° Northeast  Level Estimated
05:37AM 33.6987 135.8602 59° Northeast  Level Estimated
05:38AM 33.7695 136.0021 59° Northeast  Level Estimated
05:39AM 33.8401 136.1442 59° Northeast  Level Estimated
05:40AM 33.9105 136.2866 59° Northeast  Level Estimated
05:41AM 33.9808 136.4292 59° Northeast  Level Estimated
05:42AM 34.0509 136.5721 59° Northeast  Level Estimated
05:43AM 34.1209 136.7152 59° Northeast  Level Estimated
05:44AM 34.1907 136.8585 59° Northeast  Level Estimated
05:45AM 34.2603 137.0020 60° Northeast  Level Estimated
05:46AM 34.3297 137.1458 60° Northeast  Level Estimated
05:47AM 34.3990 137.2899 60° Northeast  Level Estimated
05:48AM 34.4681 137.4342 60° Northeast  Level Estimated
05:49AM 34.5370 137.5787 60° Northeast  Level Estimated
05:50AM 34.6058 137.7234 60° Northeast  Level Estimated
05:51AM 34.6744 137.8685 60° Northeast  Level Estimated
05:52AM 34.7429 138.0137 60° Northeast  Level Estimated
05:53AM 34.8111 138.1592 60° Northeast  Level Estimated
05:54AM 34.8792 138.3049 60° Northeast  Level Estimated
05:55AM 34.9471 138.4509 60° Northeast  Level Estimated
05:56AM 35.0148 138.5970 60° Northeast  Level Estimated
05:57AM 35.0824 138.7435 61° Northeast  Level Estimated
05:58AM 35.1498 138.8902 61° Northeast  Level Estimated
05:59AM 35.2170 139.0371 61° Northeast  Level Estimated
06:00AM 35.2840 139.1843 61° Northeast  Level Estimated
06:01AM 35.3509 139.3317 61° Northeast  Level Estimated
06:02AM 35.4175 139.4793 61° Northeast  Level Estimated
06:03AM 35.4840 139.6272 61° Northeast  Level Estimated
06:04AM 35.5503 139.7754 61° Northeast  Level Estimated
06:05AM 35.5523 139.7797 61° Northeast  Level Estimated
06:06AM 35.5523 139.7797 122° Southeast  Level Estimated
06:07AM 35.5523 139.7797 122° Southeast  Level Estimated
06:08AM 35.5523 139.7797 122° Southeast  Level Estimated
06:09AM 35.5523 139.7797 122° Southeast  Level Estimated
06:10AM 35.5523 139.7797 122° Southeast  Level Estimated
06:11AM 35.5523 139.7797 122° Southeast  Level Estimated
06:12AM 35.5523 139.7797 122° Southeast  Level Estimated
06:13AM 35.5523 139.7797 122° Southeast  Level Estimated
06:14AM 35.5523 139.7797 122° Southeast  Level Estimated